sensor_id;sensor_type;location;lat;lon;timestamp;P1;durP1;ratioP1;P2;durP2;ratioP2
20154;SDS011;10238;49.556;10.956;2023-02-20T00:01:23;5.15;;;3.58;;
20154;SDS011;10238;49.556;10.956;2023-02-20T00:04:12;6.88;;;4.03;;
20154;SDS011;10238;49.556;10.956;2023-02-20T00:07:00;8.77;;;4.55;;
20154;SDS011;10238;49.556;10.956;2023-02-20T00:09:48;5.75;;;3.70;;
20154;SDS011;10238;49.556;10.956;2023-02-20T00:12:36;4.57;;;3.67;;
20154;SDS011;10238;49.556;10.956;2023-02-20T00:15:26;4.78;;;3.80;;
20154;SDS011;10238;49.556;10.956;2023-02-20T00:18:14;4.97;;;3.25;;
20154;SDS011;10238;49.556;10.956;2023-02-20T00:21:03;9.90;;;4.10;;
20154;SDS011;10238;49.556;10.956;2023-02-20T00:23:52;9.15;;;4.47;;
20154;SDS011;10238;49.556;10.956;2023-02-20T00:26:44;7.50;;;5.10;;
20154;SDS011;10238;49.556;10.956;2023-02-20T00:29:32;8.88;;;4.93;;
20154;SDS011;10238;49.556;10.956;2023-02-20T00:32:22;6.30;;;4.43;;
20154;SDS011;10238;49.556;10.956;2023-02-20T00:35:11;6.65;;;4.10;;
20154;SDS011;10238;49.556;10.956;2023-02-20T00:37:59;10.45;;;4.72;;
20154;SDS011;10238;49.556;10.956;2023-02-20T00:40:47;10.45;;;4.78;;
20154;SDS011;10238;49.556;10.956;2023-02-20T00:43:34;7.35;;;4.05;;
20154;SDS011;10238;49.556;10.956;2023-02-20T00:46:23;8.82;;;4.75;;
20154;SDS011;10238;49.556;10.956;2023-02-20T00:49:13;8.80;;;4.43;;
20154;SDS011;10238;49.556;10.956;2023-02-20T00:52:01;6.82;;;4.50;;
20154;SDS011;10238;49.556;10.956;2023-02-20T00:54:49;8.70;;;4.95;;
20154;SDS011;10238;49.556;10.956;2023-02-20T00:57:37;10.38;;;5.22;;
20154;SDS011;10238;49.556;10.956;2023-02-20T01:00:26;8.90;;;4.63;;
20154;SDS011;10238;49.556;10.956;2023-02-20T01:03:15;8.57;;;4.80;;
20154;SDS011;10238;49.556;10.956;2023-02-20T01:06:04;8.57;;;5.00;;
20154;SDS011;10238;49.556;10.956;2023-02-20T01:08:52;9.80;;;4.68;;
20154;SDS011;10238;49.556;10.956;2023-02-20T01:11:40;7.97;;;5.05;;
20154;SDS011;10238;49.556;10.956;2023-02-20T01:14:29;8.20;;;4.80;;
20154;SDS011;10238;49.556;10.956;2023-02-20T01:17:17;9.68;;;4.80;;
20154;SDS011;10238;49.556;10.956;2023-02-20T01:20:05;8.68;;;5.07;;
20154;SDS011;10238;49.556;10.956;2023-02-20T01:22:55;9.85;;;5.00;;
20154;SDS011;10238;49.556;10.956;2023-02-20T01:25:44;9.88;;;5.32;;
20154;SDS011;10238;49.556;10.956;2023-02-20T01:28:32;7.15;;;4.38;;
20154;SDS011;10238;49.556;10.956;2023-02-20T01:31:19;8.38;;;4.95;;
20154;SDS011;10238;49.556;10.956;2023-02-20T01:34:08;8.60;;;4.72;;
20154;SDS011;10238;49.556;10.956;2023-02-20T01:36:56;10.43;;;4.45;;
20154;SDS011;10238;49.556;10.956;2023-02-20T01:39:46;5.38;;;4.68;;
20154;SDS011;10238;49.556;10.956;2023-02-20T01:42:34;7.50;;;4.78;;
20154;SDS011;10238;49.556;10.956;2023-02-20T01:45:33;8.27;;;5.18;;
20154;SDS011;10238;49.556;10.956;2023-02-20T01:48:23;9.45;;;4.75;;
20154;SDS011;10238;49.556;10.956;2023-02-20T01:51:11;8.52;;;5.20;;
20154;SDS011;10238;49.556;10.956;2023-02-20T01:53:59;7.00;;;4.45;;
20154;SDS011;10238;49.556;10.956;2023-02-20T01:56:49;8.40;;;4.80;;
20154;SDS011;10238;49.556;10.956;2023-02-20T01:59:39;6.18;;;4.93;;
20154;SDS011;10238;49.556;10.956;2023-02-20T02:02:31;7.28;;;4.50;;
20154;SDS011;10238;49.556;10.956;2023-02-20T02:05:22;6.53;;;4.47;;
20154;SDS011;10238;49.556;10.956;2023-02-20T02:08:11;7.22;;;4.45;;
20154;SDS011;10238;49.556;10.956;2023-02-20T02:11:02;7.57;;;3.75;;
20154;SDS011;10238;49.556;10.956;2023-02-20T02:13:53;7.45;;;4.40;;
20154;SDS011;10238;49.556;10.956;2023-02-20T02:16:42;9.68;;;4.30;;
20154;SDS011;10238;49.556;10.956;2023-02-20T02:19:52;8.57;;;4.72;;
20154;SDS011;10238;49.556;10.956;2023-02-20T02:23:29;8.02;;;4.20;;
20154;SDS011;10238;49.556;10.956;2023-02-20T02:30:15;8.88;;;5.13;;
20154;SDS011;10238;49.556;10.956;2023-02-20T02:33:29;6.57;;;4.68;;
20154;SDS011;10238;49.556;10.956;2023-02-20T02:37:00;6.97;;;4.68;;
20154;SDS011;10238;49.556;10.956;2023-02-20T02:39:54;5.75;;;4.13;;
20154;SDS011;10238;49.556;10.956;2023-02-20T02:42:48;8.30;;;4.90;;
20154;SDS011;10238;49.556;10.956;2023-02-20T02:48:33;10.88;;;6.05;;
20154;SDS011;10238;49.556;10.956;2023-02-20T02:51:25;8.48;;;4.40;;
20154;SDS011;10238;49.556;10.956;2023-02-20T02:57:16;7.15;;;4.88;;
20154;SDS011;10238;49.556;10.956;2023-02-20T03:00:07;10.27;;;6.28;;
20154;SDS011;10238;49.556;10.956;2023-02-20T03:03:05;9.15;;;4.70;;
20154;SDS011;10238;49.556;10.956;2023-02-20T03:05:57;6.75;;;4.70;;
20154;SDS011;10238;49.556;10.956;2023-02-20T03:08:52;10.38;;;5.25;;
20154;SDS011;10238;49.556;10.956;2023-02-20T03:11:46;8.48;;;5.20;;
20154;SDS011;10238;49.556;10.956;2023-02-20T03:14:36;10.68;;;5.97;;
20154;SDS011;10238;49.556;10.956;2023-02-20T03:17:46;7.90;;;5.30;;
20154;SDS011;10238;49.556;10.956;2023-02-20T03:20:40;9.90;;;5.70;;
20154;SDS011;10238;49.556;10.956;2023-02-20T03:23:32;11.70;;;6.10;;
20154;SDS011;10238;49.556;10.956;2023-02-20T03:26:25;11.27;;;6.07;;
20154;SDS011;10238;49.556;10.956;2023-02-20T03:29:20;9.18;;;5.75;;
20154;SDS011;10238;49.556;10.956;2023-02-20T03:32:13;8.45;;;5.38;;
20154;SDS011;10238;49.556;10.956;2023-02-20T03:35:20;14.70;;;7.07;;
20154;SDS011;10238;49.556;10.956;2023-02-20T03:38:27;9.50;;;5.32;;
20154;SDS011;10238;49.556;10.956;2023-02-20T03:41:36;12.20;;;6.65;;
20154;SDS011;10238;49.556;10.956;2023-02-20T03:44:44;9.50;;;5.60;;
20154;SDS011;10238;49.556;10.956;2023-02-20T03:47:33;9.93;;;5.75;;
20154;SDS011;10238;49.556;10.956;2023-02-20T03:50:22;11.32;;;6.18;;
20154;SDS011;10238;49.556;10.956;2023-02-20T03:53:28;10.40;;;5.57;;
20154;SDS011;10238;49.556;10.956;2023-02-20T03:56:19;11.68;;;6.50;;
20154;SDS011;10238;49.556;10.956;2023-02-20T03:59:11;13.73;;;6.80;;
20154;SDS011;10238;49.556;10.956;2023-02-20T04:02:06;11.87;;;7.30;;
20154;SDS011;10238;49.556;10.956;2023-02-20T04:04:58;14.45;;;7.68;;
20154;SDS011;10238;49.556;10.956;2023-02-20T04:07:52;13.85;;;7.78;;
20154;SDS011;10238;49.556;10.956;2023-02-20T04:10:42;15.73;;;8.20;;
20154;SDS011;10238;49.556;10.956;2023-02-20T04:13:33;9.73;;;5.55;;
20154;SDS011;10238;49.556;10.956;2023-02-20T04:16:23;12.73;;;7.07;;
20154;SDS011;10238;49.556;10.956;2023-02-20T04:19:13;9.35;;;5.78;;
20154;SDS011;10238;49.556;10.956;2023-02-20T04:22:01;12.15;;;6.43;;
20154;SDS011;10238;49.556;10.956;2023-02-20T04:24:54;15.00;;;8.48;;
20154;SDS011;10238;49.556;10.956;2023-02-20T04:27:45;12.63;;;7.03;;
20154;SDS011;10238;49.556;10.956;2023-02-20T04:30:33;12.00;;;6.43;;
20154;SDS011;10238;49.556;10.956;2023-02-20T04:33:23;14.35;;;6.97;;
20154;SDS011;10238;49.556;10.956;2023-02-20T04:36:12;14.90;;;9.20;;
20154;SDS011;10238;49.556;10.956;2023-02-20T04:39:00;10.88;;;7.63;;
20154;SDS011;10238;49.556;10.956;2023-02-20T04:41:48;9.90;;;6.70;;
20154;SDS011;10238;49.556;10.956;2023-02-20T04:44:35;13.57;;;7.45;;
20154;SDS011;10238;49.556;10.956;2023-02-20T04:47:24;10.77;;;6.63;;
20154;SDS011;10238;49.556;10.956;2023-02-20T04:50:13;11.50;;;6.40;;
20154;SDS011;10238;49.556;10.956;2023-02-20T04:53:06;15.00;;;9.65;;
20154;SDS011;10238;49.556;10.956;2023-02-20T04:55:54;14.20;;;8.18;;
20154;SDS011;10238;49.556;10.956;2023-02-20T04:58:45;7.60;;;6.55;;
20154;SDS011;10238;49.556;10.956;2023-02-20T05:01:34;8.32;;;6.57;;
20154;SDS011;10238;49.556;10.956;2023-02-20T05:04:21;13.18;;;7.03;;
20154;SDS011;10238;49.556;10.956;2023-02-20T05:07:09;12.70;;;6.80;;
20154;SDS011;10238;49.556;10.956;2023-02-20T05:09:59;8.73;;;6.63;;
20154;SDS011;10238;49.556;10.956;2023-02-20T05:12:47;11.88;;;6.70;;
20154;SDS011;10238;49.556;10.956;2023-02-20T05:15:35;13.38;;;7.45;;
20154;SDS011;10238;49.556;10.956;2023-02-20T05:18:23;12.40;;;6.70;;
20154;SDS011;10238;49.556;10.956;2023-02-20T05:21:12;10.27;;;6.88;;
20154;SDS011;10238;49.556;10.956;2023-02-20T05:24:18;12.63;;;6.78;;
20154;SDS011;10238;49.556;10.956;2023-02-20T05:27:08;12.43;;;7.15;;
20154;SDS011;10238;49.556;10.956;2023-02-20T05:29:57;8.90;;;6.63;;
20154;SDS011;10238;49.556;10.956;2023-02-20T05:32:46;10.07;;;6.50;;
20154;SDS011;10238;49.556;10.956;2023-02-20T05:35:34;8.25;;;5.90;;
20154;SDS011;10238;49.556;10.956;2023-02-20T05:38:24;10.68;;;6.57;;
20154;SDS011;10238;49.556;10.956;2023-02-20T05:41:13;10.52;;;5.88;;
20154;SDS011;10238;49.556;10.956;2023-02-20T05:44:02;12.27;;;6.28;;
20154;SDS011;10238;49.556;10.956;2023-02-20T05:46:51;8.60;;;6.18;;
20154;SDS011;10238;49.556;10.956;2023-02-20T05:49:39;10.40;;;6.30;;
20154;SDS011;10238;49.556;10.956;2023-02-20T05:52:27;12.85;;;6.50;;
20154;SDS011;10238;49.556;10.956;2023-02-20T05:55:16;11.43;;;6.35;;
20154;SDS011;10238;49.556;10.956;2023-02-20T05:58:03;8.05;;;5.53;;
20154;SDS011;10238;49.556;10.956;2023-02-20T06:00:53;10.40;;;5.97;;
20154;SDS011;10238;49.556;10.956;2023-02-20T06:03:41;10.13;;;6.35;;
20154;SDS011;10238;49.556;10.956;2023-02-20T06:06:32;8.23;;;5.55;;
20154;SDS011;10238;49.556;10.956;2023-02-20T06:09:20;10.70;;;5.97;;
20154;SDS011;10238;49.556;10.956;2023-02-20T06:12:08;9.10;;;5.90;;
20154;SDS011;10238;49.556;10.956;2023-02-20T06:14:56;8.55;;;5.88;;
20154;SDS011;10238;49.556;10.956;2023-02-20T06:17:46;10.57;;;5.70;;
20154;SDS011;10238;49.556;10.956;2023-02-20T06:20:33;10.32;;;6.05;;
20154;SDS011;10238;49.556;10.956;2023-02-20T06:23:21;13.65;;;6.47;;
20154;SDS011;10238;49.556;10.956;2023-02-20T06:26:09;9.27;;;5.50;;
20154;SDS011;10238;49.556;10.956;2023-02-20T06:28:58;11.48;;;6.70;;
20154;SDS011;10238;49.556;10.956;2023-02-20T06:31:48;9.98;;;5.82;;
20154;SDS011;10238;49.556;10.956;2023-02-20T06:34:37;9.82;;;6.78;;
20154;SDS011;10238;49.556;10.956;2023-02-20T06:37:25;9.70;;;5.45;;
20154;SDS011;10238;49.556;10.956;2023-02-20T06:40:13;12.88;;;7.47;;
20154;SDS011;10238;49.556;10.956;2023-02-20T06:43:01;10.70;;;6.35;;
20154;SDS011;10238;49.556;10.956;2023-02-20T06:45:48;12.68;;;6.95;;
20154;SDS011;10238;49.556;10.956;2023-02-20T06:48:42;12.07;;;6.40;;
20154;SDS011;10238;49.556;10.956;2023-02-20T06:51:32;11.25;;;6.78;;
20154;SDS011;10238;49.556;10.956;2023-02-20T06:54:21;10.10;;;5.82;;
20154;SDS011;10238;49.556;10.956;2023-02-20T06:57:09;9.20;;;5.50;;
20154;SDS011;10238;49.556;10.956;2023-02-20T06:59:56;10.40;;;5.50;;
20154;SDS011;10238;49.556;10.956;2023-02-20T07:02:44;11.25;;;5.18;;
20154;SDS011;10238;49.556;10.956;2023-02-20T07:05:33;8.75;;;5.40;;
20154;SDS011;10238;49.556;10.956;2023-02-20T07:08:22;8.10;;;5.70;;
20154;SDS011;10238;49.556;10.956;2023-02-20T07:11:09;10.48;;;5.57;;
20154;SDS011;10238;49.556;10.956;2023-02-20T07:13:58;8.68;;;5.15;;
20154;SDS011;10238;49.556;10.956;2023-02-20T07:16:46;9.15;;;6.18;;
20154;SDS011;10238;49.556;10.956;2023-02-20T07:19:34;6.72;;;4.90;;
20154;SDS011;10238;49.556;10.956;2023-02-20T07:22:22;9.63;;;4.97;;
20154;SDS011;10238;49.556;10.956;2023-02-20T07:25:11;10.60;;;5.22;;
20154;SDS011;10238;49.556;10.956;2023-02-20T07:27:59;9.38;;;5.63;;
20154;SDS011;10238;49.556;10.956;2023-02-20T07:30:47;7.82;;;5.00;;
20154;SDS011;10238;49.556;10.956;2023-02-20T07:33:36;8.15;;;5.32;;
20154;SDS011;10238;49.556;10.956;2023-02-20T07:36:24;6.88;;;4.70;;
20154;SDS011;10238;49.556;10.956;2023-02-20T07:39:12;8.55;;;4.93;;
20154;SDS011;10238;49.556;10.956;2023-02-20T07:42:02;5.75;;;4.32;;
20154;SDS011;10238;49.556;10.956;2023-02-20T07:44:50;7.70;;;5.03;;
20154;SDS011;10238;49.556;10.956;2023-02-20T07:47:37;10.57;;;4.70;;
20154;SDS011;10238;49.556;10.956;2023-02-20T07:50:25;5.40;;;4.45;;
20154;SDS011;10238;49.556;10.956;2023-02-20T07:53:14;6.90;;;4.75;;
20154;SDS011;10238;49.556;10.956;2023-02-20T07:56:05;10.43;;;6.40;;
20154;SDS011;10238;49.556;10.956;2023-02-20T07:58:54;7.05;;;4.85;;
20154;SDS011;10238;49.556;10.956;2023-02-20T08:01:45;6.25;;;4.70;;
20154;SDS011;10238;49.556;10.956;2023-02-20T08:04:33;10.57;;;4.75;;
20154;SDS011;10238;49.556;10.956;2023-02-20T08:07:21;8.45;;;4.90;;
20154;SDS011;10238;49.556;10.956;2023-02-20T08:10:09;9.18;;;4.88;;
20154;SDS011;10238;49.556;10.956;2023-02-20T08:12:57;7.93;;;4.45;;
20154;SDS011;10238;49.556;10.956;2023-02-20T08:15:48;8.35;;;4.47;;
20154;SDS011;10238;49.556;10.956;2023-02-20T08:18:36;8.05;;;4.50;;
20154;SDS011;10238;49.556;10.956;2023-02-20T08:21:23;6.32;;;3.60;;
20154;SDS011;10238;49.556;10.956;2023-02-20T08:24:11;8.13;;;4.50;;
20154;SDS011;10238;49.556;10.956;2023-02-20T08:26:59;7.10;;;3.67;;
20154;SDS011;10238;49.556;10.956;2023-02-20T08:29:47;7.30;;;3.90;;
20154;SDS011;10238;49.556;10.956;2023-02-20T08:32:37;8.43;;;3.92;;
20154;SDS011;10238;49.556;10.956;2023-02-20T08:35:25;7.60;;;3.60;;
20154;SDS011;10238;49.556;10.956;2023-02-20T08:38:21;9.48;;;4.47;;
20154;SDS011;10238;49.556;10.956;2023-02-20T08:41:13;6.82;;;3.60;;
20154;SDS011;10238;49.556;10.956;2023-02-20T08:44:01;8.48;;;3.75;;
20154;SDS011;10238;49.556;10.956;2023-02-20T08:46:50;7.00;;;3.35;;
20154;SDS011;10238;49.556;10.956;2023-02-20T08:49:39;5.60;;;3.40;;
20154;SDS011;10238;49.556;10.956;2023-02-20T08:52:26;4.95;;;2.92;;
20154;SDS011;10238;49.556;10.956;2023-02-20T08:55:15;4.40;;;2.90;;
20154;SDS011;10238;49.556;10.956;2023-02-20T08:58:02;3.70;;;2.85;;
20154;SDS011;10238;49.556;10.956;2023-02-20T09:00:50;4.75;;;2.97;;
20154;SDS011;10238;49.556;10.956;2023-02-20T09:03:39;5.10;;;2.78;;
20154;SDS011;10238;49.556;10.956;2023-02-20T09:06:29;7.35;;;3.00;;
20154;SDS011;10238;49.556;10.956;2023-02-20T09:09:17;2.72;;;2.42;;
20154;SDS011;10238;49.556;10.956;2023-02-20T09:12:05;5.40;;;2.85;;
20154;SDS011;10238;49.556;10.956;2023-02-20T09:14:53;5.38;;;2.63;;
20154;SDS011;10238;49.556;10.956;2023-02-20T09:17:42;5.80;;;2.92;;
20154;SDS011;10238;49.556;10.956;2023-02-20T09:20:30;5.20;;;2.83;;
20154;SDS011;10238;49.556;10.956;2023-02-20T09:23:20;6.25;;;2.15;;
20154;SDS011;10238;49.556;10.956;2023-02-20T09:26:10;4.53;;;2.78;;
20154;SDS011;10238;49.556;10.956;2023-02-20T09:28:58;5.30;;;2.58;;
20154;SDS011;10238;49.556;10.956;2023-02-20T09:31:46;5.63;;;2.70;;
20154;SDS011;10238;49.556;10.956;2023-02-20T09:34:34;6.18;;;2.40;;
20154;SDS011;10238;49.556;10.956;2023-02-20T09:37:22;2.30;;;2.10;;
20154;SDS011;10238;49.556;10.956;2023-02-20T09:40:12;4.75;;;2.53;;
20154;SDS011;10238;49.556;10.956;2023-02-20T09:43:04;4.22;;;2.25;;
20154;SDS011;10238;49.556;10.956;2023-02-20T09:46:02;5.35;;;2.10;;
20154;SDS011;10238;49.556;10.956;2023-02-20T09:48:59;4.40;;;3.08;;
20154;SDS011;10238;49.556;10.956;2023-02-20T09:51:57;5.57;;;2.90;;
20154;SDS011;10238;49.556;10.956;2023-02-20T09:54:48;6.15;;;3.10;;
20154;SDS011;10238;49.556;10.956;2023-02-20T09:57:40;6.00;;;2.90;;
20154;SDS011;10238;49.556;10.956;2023-02-20T10:00:38;6.75;;;2.65;;
20154;SDS011;10238;49.556;10.956;2023-02-20T10:03:28;3.53;;;2.63;;
20154;SDS011;10238;49.556;10.956;2023-02-20T10:06:22;4.63;;;2.58;;
20154;SDS011;10238;49.556;10.956;2023-02-20T10:09:12;4.28;;;2.70;;
20154;SDS011;10238;49.556;10.956;2023-02-20T10:12:05;5.75;;;2.72;;
20154;SDS011;10238;49.556;10.956;2023-02-20T10:15:11;4.90;;;2.72;;
20154;SDS011;10238;49.556;10.956;2023-02-20T10:18:08;4.07;;;2.55;;
20154;SDS011;10238;49.556;10.956;2023-02-20T10:21:07;7.68;;;2.67;;
20154;SDS011;10238;49.556;10.956;2023-02-20T10:24:04;6.20;;;2.72;;
20154;SDS011;10238;49.556;10.956;2023-02-20T10:27:09;6.25;;;2.70;;
20154;SDS011;10238;49.556;10.956;2023-02-20T10:30:09;5.47;;;3.53;;
20154;SDS011;10238;49.556;10.956;2023-02-20T10:33:02;4.90;;;2.70;;
20154;SDS011;10238;49.556;10.956;2023-02-20T10:35:59;5.20;;;3.03;;
20154;SDS011;10238;49.556;10.956;2023-02-20T10:38:54;5.05;;;4.00;;
20154;SDS011;10238;49.556;10.956;2023-02-20T10:41:48;6.93;;;4.32;;
20154;SDS011;10238;49.556;10.956;2023-02-20T10:44:44;6.07;;;5.53;;
20154;SDS011;10238;49.556;10.956;2023-02-20T10:47:39;4.95;;;4.30;;
20154;SDS011;10238;49.556;10.956;2023-02-20T10:50:36;7.28;;;3.40;;
20154;SDS011;10238;49.556;10.956;2023-02-20T10:53:30;7.22;;;3.67;;
20154;SDS011;10238;49.556;10.956;2023-02-20T10:56:24;8.18;;;3.58;;
20154;SDS011;10238;49.556;10.956;2023-02-20T10:59:17;3.50;;;2.72;;
20154;SDS011;10238;49.556;10.956;2023-02-20T11:05:03;6.28;;;5.68;;
20154;SDS011;10238;49.556;10.956;2023-02-20T11:07:54;5.13;;;4.65;;
20154;SDS011;10238;49.556;10.956;2023-02-20T11:10:42;6.65;;;3.75;;
20154;SDS011;10238;49.556;10.956;2023-02-20T11:13:30;9.73;;;5.75;;
20154;SDS011;10238;49.556;10.956;2023-02-20T11:16:23;7.40;;;3.97;;
20154;SDS011;10238;49.556;10.956;2023-02-20T11:19:16;5.15;;;3.03;;
20154;SDS011;10238;49.556;10.956;2023-02-20T11:22:09;5.28;;;3.90;;
20154;SDS011;10238;49.556;10.956;2023-02-20T11:25:00;6.35;;;3.33;;
20154;SDS011;10238;49.556;10.956;2023-02-20T11:28:08;5.95;;;3.35;;
20154;SDS011;10238;49.556;10.956;2023-02-20T11:31:03;6.13;;;4.07;;
20154;SDS011;10238;49.556;10.956;2023-02-20T11:33:54;4.78;;;4.22;;
20154;SDS011;10238;49.556;10.956;2023-02-20T11:36:44;3.55;;;3.25;;
20154;SDS011;10238;49.556;10.956;2023-02-20T11:39:38;5.78;;;3.88;;
20154;SDS011;10238;49.556;10.956;2023-02-20T11:42:32;5.45;;;3.70;;
20154;SDS011;10238;49.556;10.956;2023-02-20T11:45:22;5.68;;;3.83;;
20154;SDS011;10238;49.556;10.956;2023-02-20T11:48:12;7.20;;;4.68;;
20154;SDS011;10238;49.556;10.956;2023-02-20T11:51:01;6.32;;;4.78;;
20154;SDS011;10238;49.556;10.956;2023-02-20T11:53:52;8.07;;;5.68;;
20154;SDS011;10238;49.556;10.956;2023-02-20T11:57:00;5.75;;;5.25;;
20154;SDS011;10238;49.556;10.956;2023-02-20T12:00:07;10.48;;;8.48;;
20154;SDS011;10238;49.556;10.956;2023-02-20T12:03:03;5.38;;;3.38;;
20154;SDS011;10238;49.556;10.956;2023-02-20T12:05:58;11.07;;;10.20;;
20154;SDS011;10238;49.556;10.956;2023-02-20T12:08:50;10.07;;;8.88;;
20154;SDS011;10238;49.556;10.956;2023-02-20T12:11:40;7.13;;;2.78;;
20154;SDS011;10238;49.556;10.956;2023-02-20T12:14:29;6.90;;;2.90;;
20154;SDS011;10238;49.556;10.956;2023-02-20T12:17:20;3.72;;;2.80;;
20154;SDS011;10238;49.556;10.956;2023-02-20T12:20:15;3.92;;;2.22;;
20154;SDS011;10238;49.556;10.956;2023-02-20T12:23:08;5.35;;;3.30;;
20154;SDS011;10238;49.556;10.956;2023-02-20T12:26:10;6.00;;;3.83;;
20154;SDS011;10238;49.556;10.956;2023-02-20T12:29:09;3.83;;;2.50;;
20154;SDS011;10238;49.556;10.956;2023-02-20T12:32:17;3.78;;;3.20;;
20154;SDS011;10238;49.556;10.956;2023-02-20T12:35:15;3.20;;;2.75;;
20154;SDS011;10238;49.556;10.956;2023-02-20T12:38:18;4.90;;;3.38;;
20154;SDS011;10238;49.556;10.956;2023-02-20T12:41:26;3.50;;;2.65;;
20154;SDS011;10238;49.556;10.956;2023-02-20T12:44:28;4.72;;;3.38;;
20154;SDS011;10238;49.556;10.956;2023-02-20T12:47:30;4.28;;;3.20;;
20154;SDS011;10238;49.556;10.956;2023-02-20T12:53:47;5.07;;;2.88;;
20154;SDS011;10238;49.556;10.956;2023-02-20T12:56:48;3.60;;;3.00;;
20154;SDS011;10238;49.556;10.956;2023-02-20T12:59:48;6.88;;;3.10;;
20154;SDS011;10238;49.556;10.956;2023-02-20T13:02:44;3.70;;;3.13;;
20154;SDS011;10238;49.556;10.956;2023-02-20T13:05:41;6.75;;;2.70;;
20154;SDS011;10238;49.556;10.956;2023-02-20T13:08:35;4.70;;;3.47;;
20154;SDS011;10238;49.556;10.956;2023-02-20T13:11:32;5.32;;;2.60;;
20154;SDS011;10238;49.556;10.956;2023-02-20T13:14:34;4.20;;;2.63;;
20154;SDS011;10238;49.556;10.956;2023-02-20T13:17:43;3.75;;;2.53;;
20154;SDS011;10238;49.556;10.956;2023-02-20T13:20:41;3.67;;;3.38;;
20154;SDS011;10238;49.556;10.956;2023-02-20T13:23:32;7.65;;;3.45;;
20154;SDS011;10238;49.556;10.956;2023-02-20T13:29:37;3.70;;;2.97;;
20154;SDS011;10238;49.556;10.956;2023-02-20T13:32:41;5.82;;;2.65;;
20154;SDS011;10238;49.556;10.956;2023-02-20T13:35:37;4.82;;;3.03;;
20154;SDS011;10238;49.556;10.956;2023-02-20T13:38:34;5.70;;;2.97;;
20154;SDS011;10238;49.556;10.956;2023-02-20T13:41:22;4.50;;;3.13;;
20154;SDS011;10238;49.556;10.956;2023-02-20T13:47:29;4.30;;;2.97;;
20154;SDS011;10238;49.556;10.956;2023-02-20T13:50:28;5.78;;;3.42;;
20154;SDS011;10238;49.556;10.956;2023-02-20T13:53:20;3.63;;;3.22;;
20154;SDS011;10238;49.556;10.956;2023-02-20T13:56:13;4.68;;;2.50;;
20154;SDS011;10238;49.556;10.956;2023-02-20T13:59:01;3.10;;;2.78;;
20154;SDS011;10238;49.556;10.956;2023-02-20T14:02:00;3.72;;;2.80;;
20154;SDS011;10238;49.556;10.956;2023-02-20T14:04:57;5.00;;;2.90;;
20154;SDS011;10238;49.556;10.956;2023-02-20T14:07:47;6.20;;;3.40;;
20154;SDS011;10238;49.556;10.956;2023-02-20T14:10:37;5.43;;;2.90;;
20154;SDS011;10238;49.556;10.956;2023-02-20T14:13:26;5.10;;;4.60;;
20154;SDS011;10238;49.556;10.956;2023-02-20T14:16:29;3.50;;;2.72;;
20154;SDS011;10238;49.556;10.956;2023-02-20T14:19:20;3.08;;;2.67;;
20154;SDS011;10238;49.556;10.956;2023-02-20T14:22:22;3.63;;;2.78;;
20154;SDS011;10238;49.556;10.956;2023-02-20T14:28:20;6.18;;;2.85;;
20154;SDS011;10238;49.556;10.956;2023-02-20T14:31:18;5.10;;;3.78;;
20154;SDS011;10238;49.556;10.956;2023-02-20T14:34:10;4.40;;;2.70;;
20154;SDS011;10238;49.556;10.956;2023-02-20T14:37:04;6.18;;;4.53;;
20154;SDS011;10238;49.556;10.956;2023-02-20T14:40:02;5.32;;;2.92;;
20154;SDS011;10238;49.556;10.956;2023-02-20T14:42:58;5.43;;;3.10;;
20154;SDS011;10238;49.556;10.956;2023-02-20T14:45:58;4.32;;;3.35;;
20154;SDS011;10238;49.556;10.956;2023-02-20T14:48:47;4.78;;;3.50;;
20154;SDS011;10238;49.556;10.956;2023-02-20T14:51:35;5.03;;;2.80;;
20154;SDS011;10238;49.556;10.956;2023-02-20T14:54:24;5.70;;;4.35;;
20154;SDS011;10238;49.556;10.956;2023-02-20T14:57:14;5.53;;;4.18;;
20154;SDS011;10238;49.556;10.956;2023-02-20T15:00:06;5.35;;;3.42;;
20154;SDS011;10238;49.556;10.956;2023-02-20T15:02:57;3.38;;;2.60;;
20154;SDS011;10238;49.556;10.956;2023-02-20T15:05:45;4.32;;;2.10;;
20154;SDS011;10238;49.556;10.956;2023-02-20T15:08:35;3.45;;;2.83;;
20154;SDS011;10238;49.556;10.956;2023-02-20T15:11:23;6.20;;;3.17;;
20154;SDS011;10238;49.556;10.956;2023-02-20T15:14:16;5.30;;;2.42;;
20154;SDS011;10238;49.556;10.956;2023-02-20T15:17:07;3.65;;;3.35;;
20154;SDS011;10238;49.556;10.956;2023-02-20T15:20:16;5.60;;;3.50;;
20154;SDS011;10238;49.556;10.956;2023-02-20T15:23:08;5.88;;;3.55;;
20154;SDS011;10238;49.556;10.956;2023-02-20T15:26:25;5.78;;;3.65;;
20154;SDS011;10238;49.556;10.956;2023-02-20T15:29:19;4.15;;;3.72;;
20154;SDS011;10238;49.556;10.956;2023-02-20T15:32:16;7.45;;;4.63;;
20154;SDS011;10238;49.556;10.956;2023-02-20T15:35:11;17.08;;;9.50;;
20154;SDS011;10238;49.556;10.956;2023-02-20T15:38:03;12.02;;;6.57;;
20154;SDS011;10238;49.556;10.956;2023-02-20T15:40:54;7.33;;;5.50;;
20154;SDS011;10238;49.556;10.956;2023-02-20T15:43:43;10.68;;;5.80;;
20154;SDS011;10238;49.556;10.956;2023-02-20T15:46:35;13.07;;;7.37;;
20154;SDS011;10238;49.556;10.956;2023-02-20T15:49:24;13.15;;;6.97;;
20154;SDS011;10238;49.556;10.956;2023-02-20T15:52:14;10.73;;;5.93;;
20154;SDS011;10238;49.556;10.956;2023-02-20T15:55:08;5.65;;;4.75;;
20154;SDS011;10238;49.556;10.956;2023-02-20T15:58:02;8.00;;;4.70;;
20154;SDS011;10238;49.556;10.956;2023-02-20T16:01:10;6.75;;;4.15;;
20154;SDS011;10238;49.556;10.956;2023-02-20T16:03:58;5.75;;;3.80;;
20154;SDS011;10238;49.556;10.956;2023-02-20T16:06:46;8.60;;;4.03;;
20154;SDS011;10238;49.556;10.956;2023-02-20T16:09:33;4.53;;;3.20;;
20154;SDS011;10238;49.556;10.956;2023-02-20T16:12:24;3.50;;;3.20;;
20154;SDS011;10238;49.556;10.956;2023-02-20T16:15:16;4.22;;;2.67;;
20154;SDS011;10238;49.556;10.956;2023-02-20T16:18:07;6.78;;;2.90;;
20154;SDS011;10238;49.556;10.956;2023-02-20T16:20:55;3.50;;;3.20;;
20154;SDS011;10238;49.556;10.956;2023-02-20T16:23:43;5.15;;;2.67;;
20154;SDS011;10238;49.556;10.956;2023-02-20T16:26:34;3.30;;;2.65;;
20154;SDS011;10238;49.556;10.956;2023-02-20T16:29:25;4.63;;;2.50;;
20154;SDS011;10238;49.556;10.956;2023-02-20T16:32:20;2.58;;;2.38;;
20154;SDS011;10238;49.556;10.956;2023-02-20T16:35:10;4.20;;;2.20;;
20154;SDS011;10238;49.556;10.956;2023-02-20T16:37:59;3.67;;;2.30;;
20154;SDS011;10238;49.556;10.956;2023-02-20T16:40:47;5.00;;;2.58;;
20154;SDS011;10238;49.556;10.956;2023-02-20T16:43:39;4.68;;;3.28;;
20154;SDS011;10238;49.556;10.956;2023-02-20T16:46:28;4.15;;;3.70;;
20154;SDS011;10238;49.556;10.956;2023-02-20T16:49:23;3.13;;;2.80;;
20154;SDS011;10238;49.556;10.956;2023-02-20T16:52:12;2.70;;;2.45;;
20154;SDS011;10238;49.556;10.956;2023-02-20T16:55:05;2.50;;;2.13;;
20154;SDS011;10238;49.556;10.956;2023-02-20T16:58:02;2.80;;;2.10;;
20154;SDS011;10238;49.556;10.956;2023-02-20T17:00:50;7.30;;;2.88;;
20154;SDS011;10238;49.556;10.956;2023-02-20T17:03:44;4.03;;;3.20;;
20154;SDS011;10238;49.556;10.956;2023-02-20T17:06:32;4.20;;;2.70;;
20154;SDS011;10238;49.556;10.956;2023-02-20T17:09:20;5.88;;;2.13;;
20154;SDS011;10238;49.556;10.956;2023-02-20T17:12:20;9.15;;;3.65;;
20154;SDS011;10238;49.556;10.956;2023-02-20T17:15:10;3.95;;;3.58;;
20154;SDS011;10238;49.556;10.956;2023-02-20T17:17:59;5.22;;;3.25;;
20154;SDS011;10238;49.556;10.956;2023-02-20T17:20:49;6.25;;;5.45;;
20154;SDS011;10238;49.556;10.956;2023-02-20T17:23:37;4.53;;;4.22;;